createdAt,value
2024-02-20T00:00:41.590Z,25.05
2024-02-20T00:01:38.334Z,24.80
2024-02-20T00:02:35.077Z,24.38
2024-02-20T00:03:31.724Z,25.50
2024-02-20T00:04:28.912Z,25.67
2024-02-20T00:05:25.695Z,26.15
2024-02-20T00:06:22.382Z,25.85
2024-02-20T00:07:20.315Z,25.42
2024-02-20T00:08:17.042Z,25.92
2024-02-20T00:09:15.151Z,24.85
2024-02-20T00:10:14.123Z,24.95
2024-02-20T00:11:12.029Z,26.17
2024-02-20T00:12:08.804Z,25.25
2024-02-20T00:13:05.532Z,26.40
2024-02-20T00:14:02.234Z,25.40
2024-02-20T00:15:00.551Z,25.85
2024-02-20T00:15:57.544Z,26.38
2024-02-20T00:16:54.627Z,25.73
2024-02-20T00:17:51.492Z,25.58
2024-02-20T00:18:49.058Z,24.25
2024-02-20T00:19:45.826Z,26.17
2024-02-20T00:20:44.788Z,26.35
2024-02-20T00:21:43.085Z,26.15
2024-02-20T00:22:40.016Z,26.08
2024-02-20T00:23:37.436Z,27.42
2024-02-20T00:24:34.451Z,26.75
2024-02-20T00:25:31.096Z,26.20
2024-02-20T00:26:27.807Z,25.85
2024-02-20T00:27:24.800Z,26.67
2024-02-20T00:28:21.448Z,27.80
2024-02-20T00:29:18.108Z,25.50
2024-02-20T00:30:14.917Z,27.08
2024-02-20T00:31:12.692Z,26.20
2024-02-20T00:32:09.683Z,24.90
2024-02-20T00:33:06.429Z,25.02
2024-02-20T00:34:03.827Z,24.38
2024-02-20T00:35:00.962Z,25.92
2024-02-20T00:35:57.750Z,26.00
2024-02-20T00:36:54.637Z,25.90
2024-02-20T00:37:51.696Z,26.50
2024-02-20T00:38:48.291Z,24.92
2024-02-20T00:39:45.398Z,26.15
2024-02-20T00:40:42.109Z,26.65
2024-02-20T00:41:38.907Z,26.05
2024-02-20T00:42:36.079Z,25.77
2024-02-20T00:43:32.822Z,25.48
2024-02-20T00:44:29.712Z,26.17
2024-02-20T00:45:27.350Z,25.52
2024-02-20T00:46:24.211Z,26.13
2024-02-20T00:47:20.930Z,25.63
2024-02-20T00:48:17.686Z,26.08
2024-02-20T00:49:14.463Z,26.35
2024-02-20T00:50:11.976Z,26.70
2024-02-20T00:51:08.594Z,25.50
2024-02-20T00:52:05.424Z,25.98
2024-02-20T00:53:02.080Z,25.63
2024-02-20T00:53:58.748Z,25.20
2024-02-20T00:54:55.531Z,25.52
2024-02-20T00:55:52.153Z,24.45
2024-02-20T00:56:48.758Z,25.10
2024-02-20T00:57:45.396Z,24.48
2024-02-20T00:58:45.930Z,24.58
2024-02-20T00:59:43.266Z,24.17
2024-02-20T01:00:40.062Z,25.88
2024-02-20T01:01:36.894Z,27.15
2024-02-20T01:02:33.562Z,25.70
2024-02-20T01:03:30.517Z,26.50
2024-02-20T01:04:27.410Z,24.75
2024-02-20T01:05:24.129Z,26.80
2024-02-20T01:06:20.912Z,27.15
2024-02-20T01:07:17.790Z,25.55
2024-02-20T01:08:14.476Z,25.98
2024-02-20T01:09:12.770Z,26.75
2024-02-20T01:10:09.958Z,26.27
2024-02-20T01:11:07.460Z,25.67
2024-02-20T01:12:04.591Z,27.83
2024-02-20T01:13:01.612Z,26.02
2024-02-20T01:13:58.350Z,26.08
2024-02-20T01:14:54.975Z,25.52
2024-02-20T01:15:51.753Z,26.98
2024-02-20T01:16:48.478Z,26.05
2024-02-20T01:17:45.090Z,26.48
2024-02-20T01:18:42.931Z,26.33
2024-02-20T01:19:39.709Z,25.63
2024-02-20T01:20:37.219Z,25.15
2024-02-20T01:21:33.812Z,24.92
2024-02-20T01:22:30.484Z,23.30
2024-02-20T01:23:27.220Z,25.42
2024-02-20T01:24:24.116Z,26.88
2024-02-20T01:25:21.754Z,25.30
2024-02-20T01:26:18.446Z,24.30
2024-02-20T01:27:15.613Z,24.85
2024-02-20T01:28:12.424Z,26.25
2024-02-20T01:29:10.149Z,26.15
2024-02-20T01:30:09.217Z,26.45
2024-02-20T01:31:08.033Z,25.85
2024-02-20T01:32:04.767Z,26.05
2024-02-20T01:33:01.720Z,26.05
2024-02-20T01:33:59.013Z,25.70
2024-02-20T01:34:55.785Z,26.90
2024-02-20T01:35:52.442Z,27.65
2024-02-20T01:36:49.194Z,26.65
2024-02-20T01:37:45.965Z,27.45
2024-02-20T01:38:42.905Z,26.63
2024-02-20T01:39:39.735Z,26.95
2024-02-20T01:40:40.932Z,25.98
2024-02-20T01:41:37.838Z,26.55
2024-02-20T01:42:36.452Z,27.00
2024-02-20T01:43:33.216Z,25.88
2024-02-20T01:44:34.352Z,28.38
2024-02-20T01:45:32.771Z,28.08
2024-02-20T01:46:29.606Z,28.58
2024-02-20T01:47:26.384Z,28.08
2024-02-20T01:48:23.947Z,27.48
2024-02-20T01:49:20.927Z,28.55
2024-02-20T01:50:17.753Z,29.55
2024-02-20T01:51:14.869Z,29.20
2024-02-20T01:52:14.170Z,28.85
2024-02-20T01:53:11.659Z,28.45
2024-02-20T01:54:08.252Z,28.35
2024-02-20T01:55:06.633Z,29.38
2024-02-20T01:56:07.269Z,29.33
2024-02-20T01:57:04.866Z,29.27
2024-02-20T01:58:02.189Z,29.33
2024-02-20T01:58:59.089Z,28.77
2024-02-20T01:59:56.497Z,26.98
2024-02-20T02:00:53.415Z,29.33
2024-02-20T02:01:50.595Z,28.30
2024-02-20T02:02:47.496Z,29.20
2024-02-20T02:03:44.277Z,27.88
2024-02-20T02:04:41.148Z,27.60
2024-02-20T02:05:38.045Z,28.45
2024-02-20T02:06:38.942Z,29.10
2024-02-20T02:07:35.622Z,28.65
2024-02-20T02:08:32.275Z,28.70
2024-02-20T02:09:29.014Z,30.23
2024-02-20T02:10:26.129Z,30.38
2024-02-20T02:11:22.889Z,31.77
2024-02-20T02:12:19.650Z,30.27
2024-02-20T02:13:16.829Z,29.05
2024-02-20T02:14:13.624Z,30.77
2024-02-20T02:15:10.452Z,29.45
2024-02-20T02:16:10.002Z,30.13
2024-02-20T02:17:06.899Z,29.35
2024-02-20T02:18:03.832Z,27.17
2024-02-20T02:19:00.733Z,27.23
2024-02-20T02:19:57.581Z,27.38
2024-02-20T02:20:54.422Z,27.25
2024-02-20T02:21:51.051Z,26.75
2024-02-20T02:22:47.786Z,27.83
2024-02-20T02:23:44.441Z,27.70
2024-02-20T02:24:43.240Z,26.98
2024-02-20T02:25:40.047Z,27.63
2024-02-20T02:26:37.145Z,26.30
2024-02-20T02:27:35.491Z,28.25
2024-02-20T02:28:32.141Z,27.48
2024-02-20T02:29:29.642Z,26.77
2024-02-20T02:30:26.293Z,27.35
2024-02-20T02:31:22.895Z,27.92
2024-02-20T02:32:19.735Z,27.05
2024-02-20T02:33:16.736Z,26.20
2024-02-20T02:34:13.886Z,26.65
2024-02-20T02:35:11.200Z,26.60
2024-02-20T02:36:08.186Z,26.30
2024-02-20T02:37:04.900Z,27.17
2024-02-20T02:38:03.418Z,26.25
2024-02-20T02:39:00.349Z,26.98
2024-02-20T02:39:56.973Z,26.15
2024-02-20T02:40:53.793Z,26.45
2024-02-20T02:41:51.455Z,25.95
2024-02-20T02:42:48.089Z,27.20
2024-02-20T02:43:44.750Z,27.40
2024-02-20T02:44:41.401Z,28.00
2024-02-20T02:45:38.242Z,27.38
2024-02-20T02:46:35.091Z,29.48
2024-02-20T02:47:31.765Z,28.52
2024-02-20T02:48:28.463Z,26.45
2024-02-20T02:49:25.229Z,27.27
2024-02-20T02:50:22.032Z,28.05
2024-02-20T02:51:18.841Z,27.17
2024-02-20T02:52:16.517Z,27.30
2024-02-20T02:53:13.417Z,27.85
2024-02-20T02:54:10.323Z,27.83
2024-02-20T02:55:07.233Z,28.05
2024-02-20T02:56:09.865Z,28.45
2024-02-20T02:57:07.608Z,27.02
2024-02-20T02:58:05.891Z,29.23
2024-02-20T02:59:02.653Z,28.60
2024-02-20T02:59:59.212Z,28.92
2024-02-20T03:00:55.914Z,27.35
2024-02-20T03:01:52.745Z,29.90
2024-02-20T03:02:49.571Z,28.10
2024-02-20T03:03:46.290Z,29.02
2024-02-20T03:04:43.060Z,27.27
2024-02-20T03:05:39.834Z,29.50
2024-02-20T03:06:38.325Z,29.10
2024-02-20T03:07:35.174Z,29.38
2024-02-20T03:08:31.837Z,28.90
2024-02-20T03:09:28.410Z,28.80
2024-02-20T03:10:26.417Z,28.38
2024-02-20T03:11:23.078Z,27.77
2024-02-20T03:12:19.701Z,27.58
2024-02-20T03:13:16.326Z,30.25
2024-02-20T03:14:13.629Z,29.98
2024-02-20T03:15:12.729Z,29.25
2024-02-20T03:16:09.769Z,29.45
2024-02-20T03:17:06.544Z,29.70
2024-02-20T03:18:03.760Z,30.15
2024-02-20T03:19:01.403Z,31.30
2024-02-20T03:20:00.757Z,31.35
2024-02-20T03:20:57.435Z,31.65
2024-02-20T03:21:55.732Z,29.33
2024-02-20T03:22:52.495Z,31.05
2024-02-20T03:23:49.679Z,31.75
2024-02-20T03:24:46.733Z,30.83
2024-02-20T03:25:44.031Z,29.95
2024-02-20T03:26:40.690Z,30.67
2024-02-20T03:27:40.291Z,30.70
2024-02-20T03:28:37.082Z,29.67
2024-02-20T03:29:33.800Z,30.55
2024-02-20T03:30:30.491Z,31.25
2024-02-20T03:31:27.569Z,29.27
2024-02-20T03:32:24.761Z,30.85
2024-02-20T03:33:22.062Z,31.70
2024-02-20T03:34:18.991Z,29.27
2024-02-20T03:35:22.530Z,30.52
2024-02-20T03:36:19.467Z,30.08
2024-02-20T03:37:16.335Z,29.25
2024-02-20T03:38:13.189Z,30.48
2024-02-20T03:39:09.795Z,28.75
2024-02-20T03:40:07.386Z,29.17
2024-02-20T03:41:05.009Z,30.65
2024-02-20T03:42:01.818Z,30.23
2024-02-20T03:42:58.785Z,30.85
2024-02-20T03:43:55.418Z,32.00
2024-02-20T03:44:52.048Z,31.40
2024-02-20T03:45:48.731Z,31.85
2024-02-20T03:46:45.842Z,31.83
2024-02-20T03:47:42.630Z,30.55
2024-02-20T03:48:39.511Z,30.42
2024-02-20T03:49:36.824Z,30.75
2024-02-20T03:50:34.793Z,30.45
2024-02-20T03:51:31.500Z,32.58
2024-02-20T03:52:28.200Z,33.65
2024-02-20T03:53:24.863Z,32.10
2024-02-20T03:54:21.494Z,31.73
2024-02-20T03:55:19.286Z,31.63
2024-02-20T03:56:16.186Z,31.70
2024-02-20T03:57:12.848Z,31.38
2024-02-20T03:58:09.496Z,30.50
2024-02-20T03:59:06.377Z,31.80
2024-02-20T04:00:06.434Z,30.42
2024-02-20T04:01:03.974Z,29.80
2024-02-20T04:02:01.312Z,31.52
2024-02-20T04:02:58.540Z,31.25
2024-02-20T04:03:55.641Z,31.05
2024-02-20T04:04:53.497Z,31.52
2024-02-20T04:05:50.279Z,30.75
2024-02-20T04:06:47.215Z,29.98
2024-02-20T04:07:45.714Z,30.55
2024-02-20T04:08:42.283Z,28.90
2024-02-20T04:09:39.020Z,31.10
2024-02-20T04:10:35.747Z,31.23
2024-02-20T04:11:32.611Z,28.73
2024-02-20T04:12:29.329Z,31.65
2024-02-20T04:13:27.054Z,29.30
2024-02-20T04:14:23.805Z,30.13
2024-02-20T04:15:20.523Z,31.13
2024-02-20T04:16:17.205Z,32.05
2024-02-20T04:17:13.870Z,31.02
2024-02-20T04:18:10.531Z,31.98
2024-02-20T04:19:07.327Z,32.00
2024-02-20T04:20:07.289Z,31.85
2024-02-20T04:21:05.268Z,31.40
2024-02-20T04:22:04.500Z,30.40
2024-02-20T04:23:04.552Z,31.70
2024-02-20T04:24:01.502Z,33.17
2024-02-20T04:25:01.920Z,32.70
2024-02-20T04:25:58.572Z,32.90
2024-02-20T04:26:55.216Z,32.20
2024-02-20T04:27:52.441Z,32.78
2024-02-20T04:28:49.958Z,32.90
2024-02-20T04:29:46.604Z,32.47
2024-02-20T04:30:46.309Z,33.03
2024-02-20T04:31:43.113Z,32.20
2024-02-20T04:32:40.288Z,35.55
2024-02-20T04:33:38.205Z,33.38
2024-02-20T04:34:34.961Z,43.28
2024-02-20T04:35:32.185Z,35.42
2024-02-20T04:36:29.033Z,36.00
2024-02-20T04:37:25.737Z,33.55
2024-02-20T04:38:22.616Z,33.33
2024-02-20T04:39:19.238Z,34.63
2024-02-20T04:40:18.292Z,35.00
2024-02-20T04:41:25.834Z,34.83
2024-02-20T04:42:23.918Z,36.17
2024-02-20T04:43:20.624Z,34.70
2024-02-20T04:44:17.370Z,35.33
2024-02-20T04:45:14.110Z,34.85
2024-02-20T04:46:10.781Z,34.92
2024-02-20T04:47:08.305Z,33.95
2024-02-20T04:48:05.191Z,33.33
2024-02-20T04:49:01.994Z,33.90
2024-02-20T04:49:59.041Z,33.05
2024-02-20T04:50:55.879Z,34.25
2024-02-20T04:51:52.543Z,34.72
2024-02-20T04:52:49.745Z,33.45
2024-02-20T04:53:46.341Z,36.55
2024-02-20T04:54:43.086Z,34.33
2024-02-20T04:55:40.664Z,35.08
2024-02-20T04:56:37.496Z,32.30
2024-02-20T04:57:34.243Z,33.30
2024-02-20T04:58:31.297Z,32.28
2024-02-20T04:59:27.942Z,32.83
2024-02-20T05:00:24.587Z,31.70
2024-02-20T05:01:21.359Z,31.98
2024-02-20T05:02:18.080Z,32.15
2024-02-20T05:03:14.797Z,32.47
2024-02-20T05:04:11.860Z,32.45
2024-02-20T05:05:09.349Z,31.23
2024-02-20T05:06:06.036Z,30.85
2024-02-20T05:07:03.775Z,31.58
2024-02-20T05:08:00.610Z,30.27
2024-02-20T05:08:57.345Z,32.95
2024-02-20T05:09:54.145Z,32.95
2024-02-20T05:10:50.938Z,32.13
2024-02-20T05:11:47.788Z,33.65
2024-02-20T05:12:45.079Z,32.80
2024-02-20T05:13:42.656Z,32.38
2024-02-20T05:14:39.406Z,33.78
2024-02-20T05:15:36.093Z,33.15
2024-02-20T05:16:32.853Z,32.00
2024-02-20T05:17:29.494Z,31.95
2024-02-20T05:18:26.168Z,33.17
2024-02-20T05:19:22.920Z,35.65
2024-02-20T05:20:20.110Z,35.70
2024-02-20T05:21:16.761Z,35.53
2024-02-20T05:22:15.132Z,37.90
2024-02-20T05:23:11.840Z,36.65
2024-02-20T05:24:08.712Z,36.00
2024-02-20T05:25:07.893Z,35.70
2024-02-20T05:26:04.993Z,35.88
2024-02-20T05:27:04.000Z,34.95
2024-02-20T05:28:00.664Z,34.53
2024-02-20T05:28:57.473Z,35.42
2024-02-20T05:29:54.101Z,34.15
2024-02-20T05:30:50.994Z,35.17
2024-02-20T05:31:47.762Z,35.00
2024-02-20T05:32:44.450Z,34.47
2024-02-20T05:33:41.061Z,34.42
2024-02-20T05:34:38.074Z,35.65
2024-02-20T05:35:36.820Z,35.38
2024-02-20T05:36:35.159Z,35.83
2024-02-20T05:37:31.972Z,35.17
2024-02-20T05:38:28.625Z,36.03
2024-02-20T05:39:26.706Z,35.60
2024-02-20T05:40:23.480Z,33.53
2024-02-20T05:41:20.765Z,35.05
2024-02-20T05:42:17.376Z,34.42
2024-02-20T05:43:14.062Z,34.35
2024-02-20T05:44:10.698Z,36.08
2024-02-20T05:45:09.053Z,35.05
2024-02-20T05:46:05.798Z,34.65
2024-02-20T05:47:02.502Z,37.40
2024-02-20T05:47:59.326Z,36.22
2024-02-20T05:48:57.095Z,35.13
2024-02-20T05:49:54.538Z,36.78
2024-02-20T05:50:51.330Z,35.03
2024-02-20T05:51:49.205Z,36.63
2024-02-20T05:52:46.595Z,37.10
2024-02-20T05:53:44.008Z,36.15
2024-02-20T05:54:40.998Z,36.28
2024-02-20T05:55:37.727Z,36.50
2024-02-20T05:56:34.489Z,35.88
2024-02-20T05:57:31.239Z,40.35
2024-02-20T05:58:27.905Z,36.90
2024-02-20T05:59:24.551Z,42.20
2024-02-20T06:00:21.254Z,38.80
2024-02-20T06:01:18.578Z,38.97
2024-02-20T06:02:15.321Z,57.97
2024-02-20T06:03:12.078Z,47.90
2024-02-20T06:04:08.770Z,44.30
2024-02-20T06:05:05.761Z,36.67
2024-02-20T06:06:04.678Z,47.63
2024-02-20T06:07:01.442Z,39.88
2024-02-20T06:07:58.324Z,39.45
2024-02-20T06:08:55.135Z,51.25
2024-02-20T06:09:51.740Z,49.75
2024-02-20T06:10:48.480Z,44.83
2024-02-20T06:11:45.292Z,39.90
2024-02-20T06:12:41.959Z,44.05
2024-02-20T06:13:38.582Z,42.50
2024-02-20T06:14:35.200Z,43.25
2024-02-20T06:15:31.883Z,40.72
2024-02-20T06:16:28.600Z,40.65
2024-02-20T06:17:25.275Z,38.88
2024-02-20T06:18:21.989Z,35.97
2024-02-20T06:19:18.749Z,35.33
2024-02-20T06:20:15.565Z,33.67
2024-02-20T06:21:12.320Z,32.75
2024-02-20T06:22:09.726Z,32.53
2024-02-20T06:23:06.410Z,32.00
2024-02-20T06:24:06.195Z,32.45
2024-02-20T06:25:03.726Z,34.65
2024-02-20T06:26:00.745Z,33.67
2024-02-20T06:26:57.401Z,33.15
2024-02-20T06:27:56.397Z,34.13
2024-02-20T06:28:53.304Z,34.78
2024-02-20T06:29:50.033Z,35.00
2024-02-20T06:30:48.908Z,34.38
2024-02-20T06:31:50.400Z,34.53
2024-02-20T06:32:47.243Z,34.88
2024-02-20T06:33:45.416Z,35.17
2024-02-20T06:34:42.691Z,35.50
2024-02-20T06:35:39.462Z,34.75
2024-02-20T06:36:36.421Z,35.53
2024-02-20T06:37:33.111Z,36.15
2024-02-20T06:38:33.280Z,34.58
2024-02-20T06:39:29.950Z,33.92
2024-02-20T06:40:26.770Z,33.60
2024-02-20T06:41:23.474Z,33.90
2024-02-20T06:42:21.544Z,33.67
2024-02-20T06:43:18.529Z,34.25
2024-02-20T06:44:15.249Z,36.10
2024-02-20T06:45:12.976Z,34.53
2024-02-20T06:46:09.964Z,34.95
2024-02-20T06:47:06.671Z,35.67
2024-02-20T06:48:04.031Z,35.25
2024-02-20T06:49:00.861Z,36.20
2024-02-20T06:49:57.527Z,34.25
2024-02-20T06:50:54.265Z,34.28
2024-02-20T06:51:51.015Z,33.97
2024-02-20T06:52:48.248Z,35.40
2024-02-20T06:53:47.082Z,34.63
2024-02-20T06:54:45.193Z,33.65
2024-02-20T06:55:41.905Z,34.30
2024-02-20T06:56:38.879Z,36.55
2024-02-20T06:57:36.530Z,34.65
2024-02-20T06:58:33.359Z,36.38
2024-02-20T06:59:30.148Z,35.50
2024-02-20T07:00:27.523Z,35.10
2024-02-20T07:01:24.224Z,35.22
2024-02-20T07:02:20.925Z,36.47
2024-02-20T07:03:17.761Z,35.58
2024-02-20T07:04:15.377Z,34.70
2024-02-20T07:05:14.157Z,35.67
2024-02-20T07:06:11.089Z,34.47
2024-02-20T07:07:07.841Z,36.03
2024-02-20T07:08:04.557Z,34.92
2024-02-20T07:09:01.245Z,34.97
2024-02-20T07:09:57.920Z,35.80
2024-02-20T07:10:54.660Z,34.65
2024-02-20T07:11:51.325Z,35.58
2024-02-20T07:12:48.017Z,34.10
2024-02-20T07:13:44.706Z,37.20
2024-02-20T07:14:41.442Z,39.03
2024-02-20T07:15:39.376Z,40.83
2024-02-20T07:16:36.696Z,37.17
2024-02-20T07:17:38.227Z,39.80
2024-02-20T07:18:36.650Z,39.20
2024-02-20T07:19:33.720Z,39.33
2024-02-20T07:20:30.586Z,40.25
2024-02-20T07:21:28.379Z,40.00
2024-02-20T07:22:25.860Z,42.63
2024-02-20T07:23:22.583Z,40.47
2024-02-20T07:24:19.408Z,36.15
2024-02-20T07:25:16.231Z,35.55
2024-02-20T07:26:12.922Z,35.42
2024-02-20T07:27:09.542Z,38.15
2024-02-20T07:28:07.483Z,39.63
2024-02-20T07:29:04.228Z,43.30
2024-02-20T07:30:00.970Z,46.17
2024-02-20T07:30:57.587Z,47.97
2024-02-20T07:31:56.182Z,48.42
2024-02-20T07:32:52.849Z,48.47
2024-02-20T07:33:57.407Z,46.53
2024-02-20T07:35:01.130Z,48.55
2024-02-20T07:35:58.008Z,47.42
2024-02-20T07:36:55.534Z,49.97
2024-02-20T07:37:52.355Z,50.10
2024-02-20T07:38:49.033Z,49.72
2024-02-20T07:39:45.727Z,51.10
2024-02-20T07:40:42.521Z,52.55
2024-02-20T07:41:39.978Z,51.35
2024-02-20T07:42:40.840Z,50.58
2024-02-20T07:43:41.173Z,51.83
2024-02-20T07:44:37.823Z,50.95
2024-02-20T07:45:34.556Z,51.53
2024-02-20T07:46:31.400Z,51.88
2024-02-20T07:47:28.173Z,52.88
2024-02-20T07:48:24.919Z,54.05
2024-02-20T07:49:22.132Z,55.55
2024-02-20T07:50:19.190Z,53.05
2024-02-20T07:51:18.901Z,54.63
2024-02-20T07:52:15.612Z,52.50
2024-02-20T07:53:12.205Z,52.90
2024-02-20T07:54:08.944Z,53.22
2024-02-20T07:55:06.357Z,51.83
2024-02-20T07:56:06.511Z,53.00
2024-02-20T07:57:03.198Z,52.50
2024-02-20T07:57:59.934Z,53.97
2024-02-20T07:58:56.570Z,52.78
2024-02-20T07:59:53.232Z,54.40
2024-02-20T08:00:49.872Z,53.15
2024-02-20T08:01:54.001Z,53.22
2024-02-20T08:02:50.901Z,49.47
2024-02-20T08:03:53.588Z,50.70
2024-02-20T08:04:50.510Z,52.03
2024-02-20T08:05:47.434Z,49.28
2024-02-20T08:06:45.053Z,50.60
2024-02-20T08:07:41.836Z,48.45
2024-02-20T08:08:38.589Z,48.65
2024-02-20T08:09:35.238Z,49.10
2024-02-20T08:10:31.943Z,48.95
2024-02-20T08:11:29.263Z,48.45
2024-02-20T08:12:26.075Z,48.40
2024-02-20T08:13:24.109Z,47.85
2024-02-20T08:14:20.860Z,45.20
2024-02-20T08:15:17.650Z,43.92
2024-02-20T08:16:15.445Z,43.00
2024-02-20T08:17:12.214Z,41.67
2024-02-20T08:18:09.694Z,44.13
2024-02-20T08:19:06.517Z,43.47
2024-02-20T08:20:07.226Z,39.97
2024-02-20T08:21:04.149Z,40.83
2024-02-20T08:22:00.810Z,39.22
2024-02-20T08:22:57.552Z,39.15
2024-02-20T08:23:54.483Z,41.83
2024-02-20T08:24:51.187Z,38.78
2024-02-20T08:25:47.773Z,39.38
2024-02-20T08:26:44.956Z,39.65
2024-02-20T08:27:41.590Z,39.08
2024-02-20T08:28:42.162Z,38.75
2024-02-20T08:29:39.288Z,39.90
2024-02-20T08:30:35.925Z,37.42
2024-02-20T08:31:32.641Z,37.58
2024-02-20T08:32:29.334Z,39.75
2024-02-20T08:33:26.456Z,39.05
2024-02-20T08:34:26.456Z,36.67
2024-02-20T08:35:23.319Z,37.83
2024-02-20T08:36:20.494Z,37.20
2024-02-20T08:37:17.154Z,36.45
2024-02-20T08:38:15.438Z,37.85
2024-02-20T08:39:12.030Z,35.65
2024-02-20T08:40:09.027Z,37.28
2024-02-20T08:41:05.680Z,37.17
2024-02-20T08:42:02.378Z,36.83
2024-02-20T08:42:59.196Z,36.28
2024-02-20T08:43:56.669Z,38.20
2024-02-20T08:44:53.482Z,37.83
2024-02-20T08:45:50.130Z,39.80
2024-02-20T08:46:46.966Z,37.60
2024-02-20T08:47:43.968Z,39.03
2024-02-20T08:48:40.656Z,37.83
2024-02-20T08:49:37.449Z,38.97
2024-02-20T08:50:34.181Z,37.25
2024-02-20T08:51:30.861Z,37.10
2024-02-20T08:52:27.476Z,38.05
2024-02-20T08:53:24.201Z,37.75
2024-02-20T08:54:20.893Z,37.17
2024-02-20T08:55:17.767Z,37.33
2024-02-20T08:56:14.532Z,37.72
2024-02-20T08:57:11.491Z,38.83
2024-02-20T08:58:08.234Z,38.20
2024-02-20T08:59:05.356Z,37.60
2024-02-20T09:00:05.665Z,38.33
2024-02-20T09:01:02.949Z,37.22
2024-02-20T09:02:00.160Z,38.28
2024-02-20T09:02:59.173Z,38.40
2024-02-20T09:03:56.317Z,37.97
2024-02-20T09:04:53.476Z,37.17
2024-02-20T09:05:50.318Z,36.92
2024-02-20T09:06:49.994Z,38.28
2024-02-20T09:07:47.105Z,37.95
2024-02-20T09:08:43.788Z,36.63
2024-02-20T09:09:41.285Z,37.60
2024-02-20T09:10:39.328Z,36.60
2024-02-20T09:11:36.331Z,36.72
2024-02-20T09:12:34.928Z,38.28
2024-02-20T09:13:32.567Z,37.58
2024-02-20T09:14:29.387Z,35.83
2024-02-20T09:15:26.123Z,36.00
2024-02-20T09:16:22.823Z,37.25
2024-02-20T09:17:19.548Z,36.30
2024-02-20T09:18:16.430Z,38.08
2024-02-20T09:19:13.213Z,36.17
2024-02-20T09:20:12.302Z,33.95
2024-02-20T09:21:09.123Z,37.35
2024-02-20T09:22:09.883Z,36.58
2024-02-20T09:23:06.479Z,33.88
2024-02-20T09:24:03.162Z,35.90
2024-02-20T09:24:59.929Z,33.33
2024-02-20T09:25:56.686Z,35.15
2024-02-20T09:26:53.303Z,35.33
2024-02-20T09:27:50.102Z,34.45
2024-02-20T09:28:46.986Z,34.20
2024-02-20T09:29:43.818Z,35.03
2024-02-20T09:30:40.987Z,32.83
2024-02-20T09:31:37.734Z,32.72
2024-02-20T09:32:34.593Z,31.23
2024-02-20T09:33:31.532Z,30.45
2024-02-20T09:34:28.781Z,33.08
2024-02-20T09:35:26.302Z,33.00
2024-02-20T09:36:22.982Z,33.05
2024-02-20T09:37:19.666Z,33.05
2024-02-20T09:38:17.436Z,34.30
2024-02-20T09:39:14.035Z,32.67
2024-02-20T09:40:18.407Z,32.78
2024-02-20T09:41:23.308Z,31.90
2024-02-20T09:42:27.727Z,32.00
2024-02-20T09:43:26.221Z,32.45
2024-02-20T09:44:27.619Z,31.10
2024-02-20T09:45:26.630Z,32.22
2024-02-20T09:46:26.346Z,30.95
2024-02-20T09:47:23.571Z,30.23
2024-02-20T09:48:23.295Z,30.83
2024-02-20T09:49:20.864Z,28.20
2024-02-20T09:50:18.746Z,28.60
2024-02-20T09:51:16.030Z,26.35
2024-02-20T09:52:13.099Z,28.30
2024-02-20T09:53:10.491Z,26.83
2024-02-20T09:54:07.964Z,27.50
2024-02-20T09:55:05.527Z,28.70
2024-02-20T09:56:02.261Z,28.35
2024-02-20T09:57:00.874Z,27.85
2024-02-20T09:57:59.842Z,27.27
2024-02-20T09:58:56.964Z,28.80
2024-02-20T09:59:53.821Z,29.05
2024-02-20T10:00:53.561Z,28.63
2024-02-20T10:01:51.963Z,28.80
2024-02-20T10:02:52.293Z,28.23
2024-02-20T10:03:51.236Z,28.75
2024-02-20T10:04:48.332Z,27.20
2024-02-20T10:05:48.586Z,28.27
2024-02-20T10:06:45.316Z,27.75
2024-02-20T10:07:42.273Z,25.35
2024-02-20T10:08:39.017Z,25.50
2024-02-20T10:09:37.342Z,24.80
2024-02-20T10:10:34.591Z,23.05
2024-02-20T10:11:36.698Z,23.70
2024-02-20T10:12:37.589Z,24.98
2024-02-20T10:13:46.975Z,24.30
2024-02-20T10:14:43.703Z,24.63
2024-02-20T10:15:40.638Z,23.10
2024-02-20T10:16:37.380Z,22.45
2024-02-20T10:17:34.220Z,22.90
2024-02-20T10:18:30.862Z,24.45
2024-02-20T10:19:27.637Z,22.50
2024-02-20T10:20:24.550Z,21.85
2024-02-20T10:21:21.757Z,21.55
2024-02-20T10:22:25.194Z,21.58
2024-02-20T10:23:22.001Z,20.65
2024-02-20T10:24:24.724Z,23.48
2024-02-20T10:25:24.726Z,21.40
2024-02-20T10:26:21.594Z,22.00
2024-02-20T10:27:18.264Z,23.02
2024-02-20T10:28:16.041Z,22.17
2024-02-20T10:29:12.786Z,22.33
2024-02-20T10:30:09.759Z,22.70
2024-02-20T10:31:06.400Z,23.15
2024-02-20T10:32:03.181Z,23.25
2024-02-20T10:33:00.474Z,23.55
2024-02-20T10:34:06.313Z,24.15
2024-02-20T10:35:11.691Z,24.10
2024-02-20T10:36:10.346Z,24.23
2024-02-20T10:37:07.389Z,20.20
2024-02-20T10:38:06.334Z,22.83
2024-02-20T10:39:08.337Z,21.88
2024-02-20T10:40:17.286Z,21.52
2024-02-20T10:41:23.471Z,21.48
2024-02-20T10:42:20.405Z,21.33
2024-02-20T10:43:17.660Z,21.05
2024-02-20T10:44:15.057Z,21.88
2024-02-20T10:45:12.626Z,21.67
2024-02-20T10:46:09.472Z,21.90
2024-02-20T10:47:08.105Z,21.73
2024-02-20T10:48:05.656Z,21.35
2024-02-20T10:49:08.086Z,21.15
2024-02-20T10:50:08.572Z,21.25
2024-02-20T10:51:05.695Z,20.35
2024-02-20T10:52:06.867Z,20.63
2024-02-20T10:53:06.442Z,19.65
2024-02-20T10:54:03.885Z,19.63
2024-02-20T10:55:14.304Z,20.23
2024-02-20T10:56:21.894Z,21.08
2024-02-20T10:57:19.446Z,21.98
2024-02-20T10:58:18.696Z,21.08
2024-02-20T10:59:18.579Z,23.52
2024-02-20T11:00:17.343Z,21.90
2024-02-20T11:01:14.768Z,20.15
2024-02-20T11:02:11.765Z,20.35
2024-02-20T11:03:09.808Z,15.15
2024-02-20T11:04:14.951Z,14.23
2024-02-20T11:05:14.880Z,14.35
2024-02-20T11:06:12.689Z,16.67
2024-02-20T11:07:10.206Z,17.92
2024-02-20T11:08:12.319Z,16.95
2024-02-20T11:09:14.737Z,17.55
2024-02-20T11:10:16.448Z,21.02
2024-02-20T11:11:17.267Z,20.65
2024-02-20T11:12:14.015Z,20.25
2024-02-20T11:13:27.184Z,18.75
2024-02-20T11:14:30.797Z,18.98
2024-02-20T11:15:28.323Z,18.55
2024-02-20T11:16:33.833Z,17.42
2024-02-20T11:17:35.961Z,19.27
2024-02-20T11:18:32.738Z,18.40
2024-02-20T11:19:29.703Z,18.45
2024-02-20T11:20:26.594Z,18.48
2024-02-20T11:21:30.890Z,17.88
2024-02-20T11:22:27.858Z,17.02
2024-02-20T11:23:29.366Z,16.80
2024-02-20T11:24:33.417Z,15.98
2024-02-20T11:25:33.737Z,15.57
2024-02-20T11:26:34.057Z,15.85
2024-02-20T11:27:37.613Z,14.73
2024-02-20T11:28:37.932Z,14.63
2024-02-20T11:29:39.506Z,15.02
2024-02-20T11:30:39.142Z,14.18
2024-02-20T11:31:35.742Z,14.50
2024-02-20T11:32:33.065Z,14.50
2024-02-20T11:33:32.389Z,14.80
2024-02-20T11:34:34.105Z,15.73
2024-02-20T11:35:33.799Z,15.00
2024-02-20T11:36:31.218Z,16.10
2024-02-20T11:37:28.933Z,17.88
2024-02-20T11:38:28.867Z,17.10
2024-02-20T11:39:27.181Z,16.70
2024-02-20T11:40:29.136Z,16.50
2024-02-20T11:41:26.103Z,16.45
2024-02-20T11:42:22.905Z,17.15
2024-02-20T11:43:23.549Z,16.75
2024-02-20T11:44:21.061Z,17.30
2024-02-20T11:45:22.392Z,16.33
2024-02-20T11:46:19.216Z,16.23
2024-02-20T11:47:17.012Z,16.33
2024-02-20T11:48:15.753Z,17.10
2024-02-20T11:49:21.835Z,17.48
2024-02-20T11:50:18.751Z,16.17
2024-02-20T11:51:18.953Z,16.00
2024-02-20T11:52:15.865Z,16.45
2024-02-20T11:53:17.210Z,16.45
2024-02-20T11:54:14.138Z,16.37
2024-02-20T11:55:14.203Z,16.25
2024-02-20T11:56:10.966Z,17.45
2024-02-20T11:57:07.706Z,16.20
2024-02-20T11:58:05.670Z,16.83
2024-02-20T11:59:04.235Z,17.70
2024-02-20T12:00:02.300Z,16.73
2024-02-20T12:01:07.511Z,16.33
2024-02-20T12:02:05.077Z,17.23
2024-02-20T12:03:03.837Z,16.80
2024-02-20T12:04:07.662Z,16.92
2024-02-20T12:05:07.730Z,17.88
2024-02-20T12:06:10.267Z,16.33
2024-02-20T12:07:11.293Z,17.00
2024-02-20T12:08:17.642Z,16.63
2024-02-20T12:09:18.297Z,15.70
2024-02-20T12:10:21.979Z,15.75
2024-02-20T12:11:21.577Z,16.20
2024-02-20T12:12:26.450Z,16.02
2024-02-20T12:13:25.253Z,16.50
2024-02-20T12:14:22.196Z,16.50
2024-02-20T12:15:19.322Z,16.05
2024-02-20T12:16:24.476Z,16.70
2024-02-20T12:17:21.440Z,17.45
2024-02-20T12:18:29.291Z,17.10
2024-02-20T12:19:29.551Z,17.77
2024-02-20T12:20:27.105Z,16.58
2024-02-20T12:21:25.461Z,17.13
2024-02-20T12:22:22.846Z,18.08
2024-02-20T12:23:20.915Z,18.00
2024-02-20T12:24:23.384Z,17.75